createdAt,value
2018-10-05T00:01:28.037Z,21.17
2018-10-05T00:03:58.682Z,19.10
2018-10-05T00:06:28.930Z,21.90
2018-10-05T00:08:59.424Z,20.77
2018-10-05T00:11:29.802Z,20.93
2018-10-05T00:13:59.916Z,24.27
2018-10-05T00:16:30.230Z,22.73
2018-10-05T00:19:01.750Z,24.37
2018-10-05T00:21:32.002Z,20.77
2018-10-05T00:24:03.051Z,23.50
2018-10-05T00:26:33.576Z,20.50
2018-10-05T00:29:05.139Z,19.80
2018-10-05T00:31:37.944Z,19.83
2018-10-05T00:34:08.211Z,22.60
2018-10-05T00:36:38.459Z,19.50
2018-10-05T00:39:10.565Z,19.97
2018-10-05T00:41:40.711Z,20.53
2018-10-05T00:44:11.141Z,20.87
2018-10-05T00:46:41.315Z,19.90
2018-10-05T00:49:11.683Z,20.57
2018-10-05T00:51:41.785Z,20.87
2018-10-05T00:54:12.941Z,21.43
2018-10-05T00:56:43.699Z,21.60
2018-10-05T00:59:15.752Z,24.93
2018-10-05T01:01:46.217Z,21.30
2018-10-05T01:04:16.450Z,20.00
2018-10-05T01:06:46.937Z,19.17
2018-10-05T01:09:16.840Z,19.13
2018-10-05T01:11:47.327Z,20.87
2018-10-05T01:14:17.663Z,18.60
2018-10-05T01:16:47.839Z,17.47
2018-10-05T01:19:18.087Z,20.27
2018-10-05T01:21:48.470Z,15.87
2018-10-05T01:24:18.769Z,15.77
2018-10-05T01:26:49.045Z,21.77
2018-10-05T01:29:20.284Z,18.60
2018-10-05T01:31:50.906Z,21.70
2018-10-05T01:34:22.405Z,26.53
2018-10-05T01:36:52.664Z,31.83
2018-10-05T01:39:22.844Z,31.03
2018-10-05T01:41:53.250Z,29.27
2018-10-05T01:44:24.089Z,29.77
2018-10-05T01:46:54.477Z,30.67
2018-10-05T01:49:25.021Z,29.20
2018-10-05T01:51:56.263Z,32.33
2018-10-05T01:54:26.983Z,36.10
2018-10-05T01:56:57.848Z,36.90
2018-10-05T01:59:28.864Z,37.87
2018-10-05T02:01:59.419Z,38.17
2018-10-05T02:04:29.883Z,44.00
2018-10-05T02:07:00.631Z,44.20
2018-10-05T02:09:30.640Z,46.00
2018-10-05T02:12:00.926Z,50.13
2018-10-05T02:14:30.956Z,50.27
2018-10-05T02:17:01.946Z,44.87
2018-10-05T02:19:32.152Z,45.33
2018-10-05T02:22:02.354Z,44.17
2018-10-05T02:24:33.024Z,38.53
2018-10-05T02:27:04.006Z,33.50
2018-10-05T02:29:34.687Z,33.57
2018-10-05T02:32:04.656Z,29.00
2018-10-05T02:34:35.730Z,32.20
2018-10-05T02:37:06.791Z,30.27
2018-10-05T02:39:37.616Z,27.93
2018-10-05T02:42:08.232Z,26.67
2018-10-05T02:44:39.679Z,28.20
2018-10-05T02:47:09.902Z,25.33
2018-10-05T02:49:41.760Z,25.93
2018-10-05T02:52:11.979Z,29.33
2018-10-05T02:54:43.463Z,25.30
2018-10-05T02:57:13.899Z,28.87
2018-10-05T02:59:44.311Z,24.40
2018-10-05T03:02:27.070Z,26.53
2018-10-05T03:04:57.415Z,24.93
2018-10-05T03:07:29.171Z,24.73
2018-10-05T03:10:01.558Z,23.37
2018-10-05T03:12:32.157Z,26.47
2018-10-05T03:15:02.196Z,28.37
2018-10-05T03:17:33.485Z,27.03
2018-10-05T03:20:04.095Z,29.40
2018-10-05T03:22:34.353Z,29.23
2018-10-05T03:25:05.281Z,28.23
2018-10-05T03:27:35.818Z,27.30
2018-10-05T03:30:06.685Z,26.07
2018-10-05T03:32:37.002Z,26.50
2018-10-05T03:35:07.350Z,28.27
2018-10-05T03:37:37.747Z,28.57
2018-10-05T03:40:08.391Z,27.00
2018-10-05T03:42:38.732Z,24.97
2018-10-05T03:45:09.926Z,26.90
2018-10-05T03:47:40.414Z,26.70
2018-10-05T03:50:10.674Z,23.27
2018-10-05T03:52:41.022Z,22.07
2018-10-05T03:55:11.384Z,21.63
2018-10-05T03:57:41.544Z,26.33
2018-10-05T04:00:12.355Z,23.47
2018-10-05T04:02:42.736Z,25.23
2018-10-05T04:05:12.960Z,26.87
2018-10-05T04:07:44.030Z,23.67
2018-10-05T04:10:14.058Z,23.77
2018-10-05T04:12:44.110Z,23.57
2018-10-05T04:15:14.617Z,22.53
2018-10-05T04:17:44.710Z,27.93
2018-10-05T04:20:16.030Z,28.97
2018-10-05T04:22:46.081Z,24.50
2018-10-05T04:25:16.277Z,24.73
2018-10-05T04:27:47.362Z,23.90
2018-10-05T04:30:17.816Z,23.83
2018-10-05T04:32:48.980Z,19.90
2018-10-05T04:35:19.977Z,22.00
2018-10-05T04:37:50.116Z,21.37
2018-10-05T04:40:20.340Z,21.03
2018-10-05T04:42:50.831Z,18.50
2018-10-05T04:45:21.116Z,19.53
2018-10-05T04:47:51.366Z,19.73
2018-10-05T04:50:21.696Z,21.90
2018-10-05T04:52:51.913Z,22.67
2018-10-05T04:55:23.133Z,21.60
2018-10-05T04:57:53.605Z,20.53
2018-10-05T05:00:24.203Z,21.83
2018-10-05T05:02:54.852Z,23.40
2018-10-05T05:05:25.636Z,37.77
2018-10-05T05:07:56.244Z,36.93
2018-10-05T05:10:27.207Z,38.93
2018-10-05T05:12:58.493Z,42.37
2018-10-05T05:15:28.964Z,44.90
2018-10-05T05:17:58.962Z,38.00
2018-10-05T05:20:29.092Z,38.43
2018-10-05T05:22:59.443Z,36.03
2018-10-05T05:25:29.855Z,36.77
2018-10-05T05:28:00.291Z,36.30
2018-10-05T05:30:31.211Z,34.13
2018-10-05T05:33:01.433Z,33.37
2018-10-05T05:35:32.025Z,34.90
2018-10-05T05:38:04.023Z,32.10
2018-10-05T05:40:36.695Z,27.07
2018-10-05T05:43:07.567Z,26.90
2018-10-05T05:45:39.413Z,28.40
2018-10-05T05:48:10.136Z,31.90
2018-10-05T05:50:40.809Z,24.80
2018-10-05T05:53:12.440Z,25.90
2018-10-05T05:55:43.210Z,28.80
2018-10-05T05:58:13.779Z,35.37
2018-10-05T06:00:44.141Z,29.10
2018-10-05T06:03:15.633Z,28.27
2018-10-05T06:05:45.744Z,24.60
2018-10-05T06:08:16.137Z,32.13
2018-10-05T06:10:46.612Z,37.03
2018-10-05T06:13:16.887Z,29.03
2018-10-05T06:15:48.691Z,32.73
2018-10-05T06:18:18.813Z,28.43
2018-10-05T06:20:49.688Z,29.00
2018-10-05T06:23:19.865Z,31.67
2018-10-05T06:25:51.166Z,30.10
2018-10-05T06:28:24.640Z,29.00
2018-10-05T06:30:55.127Z,30.13
2018-10-05T06:33:25.439Z,34.43
2018-10-05T06:35:55.550Z,35.37
2018-10-05T06:38:25.970Z,34.27
2018-10-05T06:40:56.311Z,32.77
2018-10-05T06:43:26.439Z,33.03
2018-10-05T06:45:56.722Z,37.30
2018-10-05T06:48:27.708Z,34.63
2018-10-05T06:50:58.524Z,37.30
2018-10-05T06:53:29.535Z,47.03
2018-10-05T06:55:59.822Z,37.10
2018-10-05T06:58:30.570Z,37.47
2018-10-05T07:01:01.546Z,35.07
2018-10-05T07:03:32.036Z,34.77
2018-10-05T07:06:02.650Z,29.47
2018-10-05T07:08:33.405Z,28.33
2018-10-05T07:11:03.621Z,26.17
2018-10-05T07:13:34.732Z,25.10
2018-10-05T07:16:04.933Z,21.83
2018-10-05T07:18:35.424Z,21.13
2018-10-05T07:21:07.277Z,25.43
2018-10-05T07:23:37.369Z,25.77
2018-10-05T07:26:08.766Z,19.10
2018-10-05T07:28:40.198Z,19.80
2018-10-05T07:31:11.389Z,20.33
2018-10-05T07:33:41.649Z,24.93
2018-10-05T07:36:12.070Z,18.67
2018-10-05T07:38:43.532Z,20.37
2018-10-05T07:41:14.057Z,20.07
2018-10-05T07:43:45.427Z,22.03
2018-10-05T07:46:16.551Z,18.07
2018-10-05T07:48:47.187Z,21.73
2018-10-05T07:51:17.601Z,18.77
2018-10-05T07:53:48.440Z,22.90
2018-10-05T07:56:19.221Z,20.00
2018-10-05T07:58:49.753Z,24.80
2018-10-05T08:01:20.179Z,20.23
2018-10-05T08:03:50.581Z,20.37
2018-10-05T08:06:21.198Z,19.50
2018-10-05T08:08:51.491Z,16.00
2018-10-05T08:11:22.413Z,20.60
2018-10-05T08:13:52.973Z,22.80
2018-10-05T08:16:23.258Z,29.30
2018-10-05T08:18:53.697Z,18.40
2018-10-05T08:21:24.758Z,17.67
2018-10-05T08:23:55.041Z,22.07
2018-10-05T08:26:25.452Z,18.70
2018-10-05T08:28:55.666Z,17.63
2018-10-05T08:31:26.134Z,15.53
2018-10-05T08:33:56.645Z,17.67
2018-10-05T08:36:27.385Z,14.17
2018-10-05T08:38:57.940Z,15.73
2018-10-05T08:41:28.056Z,14.77
2018-10-05T08:43:58.528Z,14.27
2018-10-05T08:46:28.977Z,11.73
2018-10-05T08:48:59.296Z,14.23
2018-10-05T08:51:31.020Z,16.00
2018-10-05T08:54:01.181Z,14.43
2018-10-05T08:56:32.178Z,17.33
2018-10-05T08:59:02.980Z,12.33
2018-10-05T09:01:33.266Z,13.73
2018-10-05T09:04:03.740Z,13.97
2018-10-05T09:06:34.079Z,16.00
2018-10-05T09:09:05.941Z,13.33
2018-10-05T09:11:36.668Z,17.90
2018-10-05T09:14:07.227Z,11.40
2018-10-05T09:16:37.572Z,16.37
2018-10-05T09:19:08.236Z,12.90
2018-10-05T09:21:38.689Z,10.77
2018-10-05T09:24:10.049Z,17.23
2018-10-05T09:26:40.971Z,11.03
2018-10-05T09:29:12.233Z,13.27
2018-10-05T09:31:43.186Z,14.93
2018-10-05T09:34:15.539Z,13.67
2018-10-05T09:36:46.023Z,12.50
2018-10-05T09:39:16.615Z,15.03
2018-10-05T09:41:47.051Z,15.73
2018-10-05T09:44:17.429Z,12.80
2018-10-05T09:46:47.953Z,12.77
2018-10-05T09:49:18.839Z,14.10
2018-10-05T09:51:48.918Z,13.90
2018-10-05T09:54:19.227Z,13.97
2018-10-05T09:56:49.261Z,13.30
2018-10-05T09:59:20.362Z,13.97
2018-10-05T10:02:56.437Z,13.37
2018-10-05T10:05:26.809Z,14.90
2018-10-05T10:07:57.307Z,13.03
2018-10-05T10:10:28.225Z,11.53
2018-10-05T10:12:59.100Z,13.53
2018-10-05T10:15:29.185Z,11.50
2018-10-05T10:17:59.612Z,10.30
2018-10-05T10:20:30.070Z,10.10
2018-10-05T10:23:00.587Z,10.93
2018-10-05T10:25:31.832Z,12.80
2018-10-05T10:28:04.007Z,10.90
2018-10-05T10:30:34.146Z,10.93
2018-10-05T10:33:04.723Z,13.30
2018-10-05T10:35:35.249Z,10.57
2018-10-05T10:38:05.369Z,15.20
2018-10-05T10:40:35.892Z,13.83
2018-10-05T10:43:06.451Z,18.47
2018-10-05T10:45:36.806Z,16.47
2018-10-05T10:48:07.686Z,12.17
2018-10-05T10:50:37.945Z,13.17
2018-10-05T10:53:08.450Z,12.07
2018-10-05T10:55:39.183Z,13.20
2018-10-05T10:58:10.687Z,14.03
2018-10-05T11:00:41.241Z,13.87
2018-10-05T11:03:11.944Z,12.67
2018-10-05T11:05:42.288Z,13.00
2018-10-05T11:08:12.533Z,12.77
2018-10-05T11:10:42.794Z,13.37
2018-10-05T11:13:13.091Z,12.20
2018-10-05T11:15:43.826Z,12.63
2018-10-05T11:18:14.398Z,18.13
2018-10-05T11:20:44.801Z,12.43
2018-10-05T11:23:14.960Z,14.00
2018-10-05T11:25:45.231Z,9.70
2018-10-05T11:28:15.950Z,12.30
2018-10-05T11:30:46.612Z,11.57
2018-10-05T11:33:16.580Z,12.87
2018-10-05T11:35:47.179Z,12.30
2018-10-05T11:38:17.500Z,9.73
2018-10-05T11:40:49.361Z,10.27
2018-10-05T11:43:19.796Z,12.03
2018-10-05T11:45:50.282Z,12.23
2018-10-05T11:48:20.570Z,13.33
2018-10-05T11:50:50.982Z,11.33
2018-10-05T11:53:21.934Z,11.67
2018-10-05T11:55:52.246Z,12.73
2018-10-05T11:58:22.698Z,12.63
2018-10-05T12:00:52.955Z,14.20
2018-10-05T12:03:24.120Z,16.13
2018-10-05T12:05:54.730Z,10.83
2018-10-05T12:08:25.950Z,20.77
2018-10-05T12:10:56.256Z,18.40
2018-10-05T12:13:26.630Z,13.37
2018-10-05T12:15:56.956Z,17.17
2018-10-05T12:18:28.758Z,13.50
2018-10-05T12:20:59.260Z,11.40
2018-10-05T12:23:30.597Z,12.10
2018-10-05T12:26:00.856Z,15.77
2018-10-05T12:28:31.111Z,13.23
2018-10-05T12:31:02.344Z,12.97
2018-10-05T12:33:32.879Z,11.13
2018-10-05T12:36:04.259Z,18.87
2018-10-05T12:38:34.652Z,10.83
2018-10-05T12:41:05.029Z,11.30
2018-10-05T12:43:36.347Z,11.03
2018-10-05T12:46:07.191Z,8.53
2018-10-05T12:48:39.015Z,10.37
2018-10-05T12:51:09.639Z,19.50
2018-10-05T12:53:40.082Z,12.67
2018-10-05T12:56:10.355Z,16.33
2018-10-05T12:58:41.428Z,13.20
2018-10-05T13:01:11.467Z,9.57
2018-10-05T13:03:42.328Z,8.43
2018-10-05T13:06:12.881Z,11.70
2018-10-05T13:08:45.658Z,11.93
2018-10-05T13:11:16.260Z,11.07
2018-10-05T13:13:46.824Z,9.10
2018-10-05T13:16:18.212Z,12.07
2018-10-05T13:18:48.854Z,11.07
2018-10-05T13:21:20.872Z,8.70
2018-10-05T13:23:51.366Z,11.17
2018-10-05T13:26:23.174Z,7.50
2018-10-05T13:28:55.800Z,11.47
2018-10-05T13:31:26.874Z,11.63
2018-10-05T13:33:59.029Z,9.27
2018-10-05T13:36:29.229Z,9.37
2018-10-05T13:38:59.740Z,12.80
2018-10-05T13:41:30.112Z,9.67
2018-10-05T13:44:00.348Z,8.53
2018-10-05T13:46:30.668Z,9.03
2018-10-05T13:49:01.530Z,9.10
2018-10-05T13:51:32.101Z,8.83
2018-10-05T13:54:02.714Z,11.70
2018-10-05T13:56:33.086Z,8.63
2018-10-05T13:59:03.782Z,9.43
2018-10-05T14:01:34.317Z,9.33
2018-10-05T14:04:05.639Z,7.00
2018-10-05T14:06:36.158Z,11.30
2018-10-05T14:09:09.605Z,10.53
2018-10-05T14:11:40.349Z,8.17
2018-10-05T14:14:11.198Z,9.47
2018-10-05T14:16:41.419Z,5.97
2018-10-05T14:19:12.104Z,8.00
2018-10-05T14:21:42.644Z,8.40
2018-10-05T14:24:13.172Z,9.87
2018-10-05T14:26:43.595Z,6.97
2018-10-05T14:29:13.835Z,8.43
2018-10-05T14:31:44.200Z,8.47
2018-10-05T14:34:14.699Z,7.90
2018-10-05T14:36:46.241Z,5.50
2018-10-05T14:39:16.791Z,6.10
2018-10-05T14:41:47.368Z,6.63
2018-10-05T14:44:17.657Z,5.57
2018-10-05T14:46:48.789Z,9.40
2018-10-05T14:49:19.397Z,8.80
2018-10-05T14:51:49.983Z,5.90
2018-10-05T14:54:20.937Z,7.83
2018-10-05T14:56:51.017Z,6.50
2018-10-05T14:59:22.207Z,7.03
2018-10-05T15:01:53.349Z,5.93
2018-10-05T15:04:24.268Z,6.97
2018-10-05T15:06:54.784Z,7.17
2018-10-05T15:09:25.307Z,7.40
2018-10-05T15:11:56.433Z,8.00
2018-10-05T15:14:26.847Z,7.57
2018-10-05T15:16:57.264Z,4.73
2018-10-05T15:19:28.284Z,7.83
2018-10-05T15:21:58.754Z,7.67
2018-10-05T15:24:29.703Z,5.43
2018-10-05T15:27:00.442Z,6.73
2018-10-05T15:29:32.366Z,8.27
2018-10-05T15:32:03.770Z,7.57
2018-10-05T15:34:34.786Z,9.20
2018-10-05T15:37:05.238Z,8.93
2018-10-05T15:39:35.684Z,8.30
2018-10-05T15:42:06.272Z,8.23
2018-10-05T15:44:36.560Z,5.70
2018-10-05T15:47:08.822Z,5.47
2018-10-05T15:49:40.114Z,6.13
2018-10-05T15:52:10.453Z,7.63
2018-10-05T15:54:41.376Z,7.90
2018-10-05T15:57:12.619Z,5.47
2018-10-05T15:59:42.960Z,10.60
2018-10-05T16:02:13.751Z,6.43
2018-10-05T16:04:44.479Z,9.10
2018-10-05T16:07:14.823Z,5.60
2018-10-05T16:09:45.089Z,8.57
2018-10-05T16:12:16.541Z,7.00
2018-10-05T16:14:47.602Z,5.70
2018-10-05T16:17:17.791Z,7.40
2018-10-05T16:19:47.884Z,6.97
2018-10-05T16:22:18.001Z,5.33
2018-10-05T16:24:48.814Z,8.97
2018-10-05T16:27:19.076Z,5.43
2018-10-05T16:29:49.734Z,4.53
2018-10-05T16:32:20.022Z,6.70
2018-10-05T16:34:50.028Z,7.60
2018-10-05T16:37:20.273Z,7.27
2018-10-05T16:39:50.245Z,6.77
2018-10-05T16:42:20.909Z,7.47
2018-10-05T16:44:51.912Z,6.10
2018-10-05T16:47:22.338Z,7.47
2018-10-05T16:49:52.506Z,8.50
2018-10-05T16:52:23.001Z,8.93
2018-10-05T16:54:53.460Z,10.23
2018-10-05T16:57:23.844Z,9.60
2018-10-05T16:59:54.446Z,6.57
2018-10-05T17:02:24.784Z,10.40
2018-10-05T17:04:55.555Z,7.57
2018-10-05T17:07:25.844Z,6.73
2018-10-05T17:09:56.101Z,7.97
2018-10-05T17:12:26.391Z,4.70
2018-10-05T17:14:57.599Z,4.73
2018-10-05T17:17:27.819Z,10.27
2018-10-05T17:19:58.137Z,4.73
2018-10-05T17:22:28.261Z,5.17
2018-10-05T17:24:58.591Z,4.83
2018-10-05T17:27:29.295Z,5.53
2018-10-05T17:29:59.340Z,7.17
2018-10-05T17:32:30.752Z,6.97
2018-10-05T17:35:01.103Z,8.93
2018-10-05T17:37:31.275Z,6.67
2018-10-05T17:40:02.303Z,7.70
2018-10-05T17:42:32.394Z,6.00
2018-10-05T17:45:02.986Z,6.93
2018-10-05T17:47:33.379Z,5.20
2018-10-05T17:50:04.682Z,7.23
2018-10-05T17:52:35.952Z,5.67
2018-10-05T17:55:06.605Z,5.53
2018-10-05T17:57:37.228Z,7.90
2018-10-05T18:00:08.062Z,8.70
2018-10-05T18:02:38.894Z,7.40
2018-10-05T18:05:09.068Z,8.13
2018-10-05T18:07:39.596Z,6.57
2018-10-05T18:10:09.857Z,7.77
2018-10-05T18:12:42.556Z,6.50
2018-10-05T18:15:12.806Z,7.83
2018-10-05T18:17:44.111Z,9.30
2018-10-05T18:20:15.827Z,8.10
2018-10-05T18:22:45.988Z,6.77
2018-10-05T18:25:16.998Z,9.37
2018-10-05T18:27:48.511Z,11.87
2018-10-05T18:30:18.740Z,9.40
2018-10-05T18:32:49.071Z,8.50
2018-10-05T18:35:19.342Z,7.80
2018-10-05T18:37:50.531Z,7.97
2018-10-05T18:40:20.877Z,11.43
2018-10-05T18:42:51.032Z,8.70
2018-10-05T18:45:21.841Z,8.87
2018-10-05T18:47:52.090Z,8.33
2018-10-05T18:50:22.644Z,9.33
2018-10-05T18:52:53.071Z,10.20
2018-10-05T18:55:23.418Z,8.37
2018-10-05T18:57:53.789Z,8.57
2018-10-05T19:00:24.061Z,9.10
2018-10-05T19:02:54.722Z,10.13
2018-10-05T19:05:25.048Z,8.40
2018-10-05T19:07:55.288Z,8.03
2018-10-05T19:10:26.153Z,7.63
2018-10-05T19:12:58.296Z,8.40
2018-10-05T19:15:28.872Z,12.00
2018-10-05T19:17:59.695Z,7.40
2018-10-05T19:20:29.876Z,10.30
2018-10-05T19:23:00.185Z,7.13
2018-10-05T19:25:30.454Z,9.33
2018-10-05T19:28:01.505Z,8.27
2018-10-05T19:30:31.755Z,7.97
2018-10-05T19:33:03.271Z,9.03
2018-10-05T19:35:33.627Z,8.90
2018-10-05T19:38:03.985Z,8.73
2018-10-05T19:40:34.437Z,8.80
2018-10-05T19:43:04.649Z,10.20
2018-10-05T19:45:35.097Z,8.73
2018-10-05T19:48:05.142Z,9.73
2018-10-05T19:50:35.551Z,7.67
2018-10-05T19:53:05.967Z,8.93
2018-10-05T19:55:36.152Z,8.60
2018-10-05T19:58:06.494Z,7.80
2018-10-05T20:00:36.647Z,7.90
2018-10-05T20:03:07.015Z,9.10
2018-10-05T20:05:37.199Z,8.93
2018-10-05T20:08:08.288Z,7.80
2018-10-05T20:10:38.524Z,7.80
2018-10-05T20:13:09.054Z,8.80
2018-10-05T20:15:39.678Z,13.17
2018-10-05T20:18:10.245Z,8.87
2018-10-05T20:20:40.491Z,10.37
2018-10-05T20:23:11.285Z,10.87
2018-10-05T20:25:41.601Z,8.90
2018-10-05T20:28:12.209Z,9.67
2018-10-05T20:30:44.401Z,9.07
2018-10-05T20:33:16.008Z,12.73
2018-10-05T20:35:47.118Z,8.87
2018-10-05T20:38:17.624Z,9.97
2018-10-05T20:40:48.421Z,14.77
2018-10-05T20:43:19.356Z,12.10
2018-10-05T20:45:49.476Z,11.33
2018-10-05T20:48:19.766Z,9.13
2018-10-05T20:50:51.020Z,8.33
2018-10-05T20:53:21.307Z,8.63
2018-10-05T20:55:51.616Z,9.87
2018-10-05T20:58:22.312Z,9.67
2018-10-05T21:00:52.496Z,9.67
2018-10-05T21:03:22.805Z,10.70
2018-10-05T21:05:53.506Z,10.20
2018-10-05T21:08:23.927Z,11.43
2018-10-05T21:10:54.446Z,10.20
2018-10-05T21:13:25.159Z,12.07
2018-10-05T21:15:56.417Z,11.43
2018-10-05T21:18:27.237Z,13.70
2018-10-05T21:20:57.537Z,11.97
2018-10-05T21:23:28.563Z,12.00
2018-10-05T21:25:59.163Z,11.43
2018-10-05T21:28:29.454Z,12.00
2018-10-05T21:31:00.530Z,11.33
2018-10-05T21:33:30.953Z,12.23
2018-10-05T21:36:01.101Z,13.57
2018-10-05T21:38:31.525Z,14.43
2018-10-05T21:41:01.676Z,15.03
2018-10-05T21:43:31.649Z,17.77
2018-10-05T21:46:02.294Z,14.77
2018-10-05T21:48:33.045Z,13.83
2018-10-05T21:51:03.388Z,15.83
2018-10-05T21:53:33.525Z,14.57
2018-10-05T21:56:04.210Z,15.17
2018-10-05T21:58:35.044Z,14.17
2018-10-05T22:01:06.293Z,16.07
2018-10-05T22:03:36.299Z,13.67
2018-10-05T22:06:06.517Z,14.47
2018-10-05T22:08:37.331Z,14.97
2018-10-05T22:11:09.045Z,16.73
2018-10-05T22:13:39.266Z,14.37
2018-10-05T22:16:10.045Z,13.07
2018-10-05T22:18:40.351Z,14.03
2018-10-05T22:21:11.049Z,13.57
2018-10-05T22:23:41.345Z,20.97
2018-10-05T22:26:11.547Z,16.43
2018-10-05T22:28:42.063Z,16.23
2018-10-05T22:31:12.875Z,16.53
2018-10-05T22:33:43.248Z,15.37
2018-10-05T22:36:14.430Z,15.63
2018-10-05T22:38:44.810Z,17.33
2018-10-05T22:41:15.160Z,17.67
2018-10-05T22:43:46.080Z,18.90
2018-10-05T22:46:16.353Z,18.93
2018-10-05T22:48:46.631Z,17.50
2018-10-05T22:51:16.647Z,20.33
2018-10-05T22:53:46.635Z,18.40
2018-10-05T22:56:17.736Z,19.13
2018-10-05T22:58:48.692Z,18.40
2018-10-05T23:01:18.968Z,17.90
2018-10-05T23:03:49.116Z,18.33
2018-10-05T23:06:19.690Z,21.27
2018-10-05T23:08:50.411Z,17.27
2018-10-05T23:11:20.793Z,17.90
2018-10-05T23:13:51.920Z,22.23
2018-10-05T23:16:22.828Z,18.47
2018-10-05T23:18:52.993Z,19.07
2018-10-05T23:21:22.963Z,19.50
2018-10-05T23:23:54.139Z,18.00
2018-10-05T23:26:24.315Z,18.60
2018-10-05T23:28:54.823Z,18.40
2018-10-05T23:31:24.978Z,18.30
2018-10-05T23:33:55.273Z,17.67
2018-10-05T23:36:25.587Z,21.03
2018-10-05T23:38:55.893Z,18.93
2018-10-05T23:41:25.927Z,20.07
2018-10-05T23:43:55.925Z,19.23
2018-10-05T23:46:26.597Z,20.03
2018-10-05T23:48:56.540Z,20.47
2018-10-05T23:51:27.083Z,24.00
2018-10-05T23:53:57.550Z,21.80
2018-10-05T23:56:27.630Z,20.13
2018-10-05T23:58:57.757Z,20.53
